Time;durP1;ratioP1;P1;durP2;ratioP2;P2;SDS_P1;SDS_P2;PMS_P1;PMS_P2;Temp;Humidity;BMP_temperature;BMP_pressure;BME280_temperature;BME280_humidity;BME280_pressure;Samples;Min_cycle;Max_cycle;Signal;HPM_P1;HPM_P2
2021/07/21 00:01:31;;;;;;;13.68;11.23;;;;;;;;;;4994723;28;20097;-81
2021/07/21 00:03:56;;;;;;;14.20;11.07;;;;;;;;;;4978757;28;20485;-81
2021/07/21 00:06:22;;;;;;;14.80;11.93;;;;;;;;;;4978489;28;20038;-81
2021/07/21 00:08:47;;;;;;;13.73;10.82;;;;;;;;;;4994785;28;20030;-81
2021/07/21 00:13:58;;;;;;;11.05;9.30;;;;;;;;;;4997052;28;20128;-81
2021/07/21 00:16:37;;;;;;;13.45;10.40;;;;;;;;;;4979485;28;20089;-81
2021/07/21 00:20:05;;;;;;;13.57;11.68;;;;;;;;;;5010567;28;20034;-80
2021/07/21 00:21:50;;;;;;;11.82;10.52;;;;;;;;;;5010187;28;20038;-81
2021/07/21 00:24:16;;;;;;;13.88;10.90;;;;;;;;;;4978421;28;20410;-81
2021/07/21 00:26:42;;;;;;;13.30;10.10;;;;;;;;;;5010020;28;20496;-81
2021/07/21 00:29:07;;;;;;;13.73;11.25;;;;;;;;;;4994445;28;20108;-81
2021/07/21 00:31:33;;;;;;;12.25;10.50;;;;;;;;;;5010835;28;20058;-81
2021/07/21 00:33:58;;;;;;;11.95;9.98;;;;;;;;;;4994465;28;20029;-81
2021/07/21 00:36:24;;;;;;;12.77;10.85;;;;;;;;;;5020824;28;20048;-81
2021/07/21 00:38:49;;;;;;;11.55;10.35;;;;;;;;;;4998132;28;20040;-80
2021/07/21 00:41:15;;;;;;;13.40;10.18;;;;;;;;;;5001401;28;20038;-81
2021/07/21 00:43:40;;;;;;;14.32;11.00;;;;;;;;;;4994035;28;20090;-81
2021/07/21 00:46:06;;;;;;;13.23;10.50;;;;;;;;;;5010592;28;20050;-80
2021/07/21 00:48:31;;;;;;;10.95;9.65;;;;;;;;;;4994227;28;20057;-80
2021/07/21 00:50:59;;;;;;;15.23;9.77;;;;;;;;;;5002408;28;20049;-81
2021/07/21 00:53:25;;;;;;;12.10;9.93;;;;;;;;;;5007081;28;20516;-81
2021/07/21 00:55:50;;;;;;;13.13;10.15;;;;;;;;;;4989961;28;20092;-81
2021/07/21 00:58:16;;;;;;;13.02;10.63;;;;;;;;;;5007245;28;20042;-81
2021/07/21 01:00:41;;;;;;;12.73;10.05;;;;;;;;;;4990971;28;20042;-81
2021/07/21 01:03:07;;;;;;;11.10;9.80;;;;;;;;;;5023630;28;20129;-81
2021/07/21 01:05:33;;;;;;;12.43;9.85;;;;;;;;;;5007202;28;20421;-81
2021/07/21 01:07:59;;;;;;;13.18;9.90;;;;;;;;;;5007555;28;20118;-81
2021/07/21 01:10:25;;;;;;;11.98;9.88;;;;;;;;;;4974882;28;20034;-81
2021/07/21 01:12:54;;;;;;;12.98;10.38;;;;;;;;;;5006755;28;20205;-81
2021/07/21 01:15:49;;;;;;;11.27;10.05;;;;;;;;;;5006148;28;20035;-82
2021/07/21 01:18:32;;;;;;;12.55;10.65;;;;;;;;;;5005743;28;20409;-81
2021/07/21 01:21:19;;;;;;;15.48;10.93;;;;;;;;;;5006660;28;20038;-81
2021/07/21 01:23:47;;;;;;;14.65;11.25;;;;;;;;;;5007060;28;20039;-81
2021/07/21 01:26:42;;;;;;;13.75;9.88;;;;;;;;;;5023441;28;20430;-81
2021/07/21 01:29:08;;;;;;;14.63;10.15;;;;;;;;;;4994012;28;20104;-81
2021/07/21 01:31:36;;;;;;;16.27;11.15;;;;;;;;;;5011122;28;20038;-81
2021/07/21 01:34:01;;;;;;;13.25;10.48;;;;;;;;;;4997864;28;20034;-81
2021/07/21 01:36:29;;;;;;;12.57;10.50;;;;;;;;;;5001505;28;20091;-81
2021/07/21 01:39:02;;;;;;;13.95;10.77;;;;;;;;;;5000857;28;20034;-81
2021/07/21 01:41:28;;;;;;;15.02;10.00;;;;;;;;;;5035624;28;20034;-81
2021/07/21 01:44:17;;;;;;;13.25;10.48;;;;;;;;;;5013601;28;20034;-81
2021/07/21 01:46:42;;;;;;;11.98;10.30;;;;;;;;;;5030122;28;20038;-81
2021/07/21 01:49:08;;;;;;;13.45;11.30;;;;;;;;;;5030141;28;20115;-81
2021/07/21 01:51:34;;;;;;;13.88;10.55;;;;;;;;;;5013329;28;20084;-81
2021/07/21 01:53:59;;;;;;;13.15;10.68;;;;;;;;;;5013362;28;20030;-81
2021/07/21 01:56:26;;;;;;;14.50;11.40;;;;;;;;;;5013546;28;20516;-81
2021/07/21 01:58:52;;;;;;;14.23;11.57;;;;;;;;;;5029995;28;20116;-81
2021/07/21 02:01:18;;;;;;;14.27;11.05;;;;;;;;;;5013509;28;20045;-82
2021/07/21 02:03:43;;;;;;;14.93;11.48;;;;;;;;;;5013412;28;20053;-81
2021/07/21 02:06:09;;;;;;;13.43;10.60;;;;;;;;;;5013212;28;20381;-81
2021/07/21 02:08:34;;;;;;;14.35;11.02;;;;;;;;;;5029600;28;20072;-81
2021/07/21 02:11:02;;;;;;;17.45;12.02;;;;;;;;;;5013044;28;20033;-81
2021/07/21 02:13:27;;;;;;;14.90;11.70;;;;;;;;;;5009125;28;20036;-81
2021/07/21 02:15:53;;;;;;;16.70;11.52;;;;;;;;;;5010042;28;20038;-82
2021/07/21 02:18:18;;;;;;;15.23;11.18;;;;;;;;;;4993421;28;20057;-81
2021/07/21 02:20:45;;;;;;;13.45;11.23;;;;;;;;;;5009707;28;20078;-81
2021/07/21 02:23:12;;;;;;;14.60;12.15;;;;;;;;;;4993243;28;20037;-81
2021/07/21 02:25:37;;;;;;;13.10;10.98;;;;;;;;;;4992941;28;20035;-81
2021/07/21 02:28:03;;;;;;;17.85;12.82;;;;;;;;;;4976958;28;20046;-81
2021/07/21 02:30:28;;;;;;;14.60;11.18;;;;;;;;;;4991803;28;20054;-81
2021/07/21 02:33:19;;;;;;;15.65;11.85;;;;;;;;;;4996569;28;20041;-81
2021/07/21 02:35:44;;;;;;;14.52;11.35;;;;;;;;;;5024251;28;20038;-81
2021/07/21 02:38:11;;;;;;;14.23;10.82;;;;;;;;;;4997653;28;20597;-81
2021/07/21 02:40:37;;;;;;;14.13;11.90;;;;;;;;;;5009400;28;20038;-81
2021/07/21 02:43:02;;;;;;;15.18;12.00;;;;;;;;;;5028304;28;20034;-81
2021/07/21 02:45:28;;;;;;;16.15;11.40;;;;;;;;;;4996276;28;20492;-81
2021/07/21 02:47:53;;;;;;;15.02;11.15;;;;;;;;;;5012393;28;20480;-81
2021/07/21 02:50:19;;;;;;;15.98;11.88;;;;;;;;;;5028784;28;20034;-81
2021/07/21 02:53:03;;;;;;;15.80;11.02;;;;;;;;;;5045279;28;20409;-81
2021/07/21 02:55:54;;;;;;;14.85;11.57;;;;;;;;;;5026717;28;20029;-81
2021/07/21 02:58:38;;;;;;;15.25;11.63;;;;;;;;;;5028615;28;20044;-81
2021/07/21 03:01:03;;;;;;;13.25;11.05;;;;;;;;;;5028383;28;20034;-81
2021/07/21 03:03:29;;;;;;;14.35;11.88;;;;;;;;;;5028770;28;20096;-81
2021/07/21 03:05:55;;;;;;;16.38;11.73;;;;;;;;;;5011951;28;20033;-81
2021/07/21 03:08:29;;;;;;;16.13;12.27;;;;;;;;;;5012248;28;20045;-81
2021/07/21 03:10:56;;;;;;;16.02;12.45;;;;;;;;;;5008302;28;20030;-81
2021/07/21 03:13:23;;;;;;;19.23;12.55;;;;;;;;;;5008645;28;20046;-81
2021/07/21 03:15:49;;;;;;;14.32;11.73;;;;;;;;;;5008379;28;20497;-81
2021/07/21 03:18:17;;;;;;;14.65;11.57;;;;;;;;;;5008487;28;20038;-81
2021/07/21 03:20:42;;;;;;;18.77;12.18;;;;;;;;;;4991957;28;20081;-81
2021/07/21 03:23:08;;;;;;;14.80;10.98;;;;;;;;;;4992171;28;20579;-81
2021/07/21 03:25:34;;;;;;;15.77;11.43;;;;;;;;;;5025183;28;20030;-81
2021/07/21 03:27:59;;;;;;;15.02;11.52;;;;;;;;;;5008445;28;20088;-81
2021/07/21 03:30:25;;;;;;;17.15;10.85;;;;;;;;;;5011739;28;20088;-81
2021/07/21 03:32:50;;;;;;;15.23;12.57;;;;;;;;;;4995447;28;20049;-81
2021/07/21 03:35:16;;;;;;;16.40;11.52;;;;;;;;;;5011269;28;20530;-81
2021/07/21 03:37:44;;;;;;;15.68;11.23;;;;;;;;;;5009751;28;20474;-81
2021/07/21 03:40:10;;;;;;;16.67;12.77;;;;;;;;;;5044611;28;20057;-81
2021/07/21 03:42:35;;;;;;;15.57;12.10;;;;;;;;;;4994609;28;20060;-81
2021/07/21 03:45:04;;;;;;;16.88;11.88;;;;;;;;;;5027628;28;20532;-82
2021/07/21 03:47:29;;;;;;;14.40;11.95;;;;;;;;;;5027675;28;20075;-81
2021/07/21 03:49:55;;;;;;;14.20;12.30;;;;;;;;;;5011214;28;20033;-81
2021/07/21 03:52:21;;;;;;;15.32;11.85;;;;;;;;;;5011181;28;20052;-81
2021/07/21 03:54:47;;;;;;;14.70;11.07;;;;;;;;;;5010661;28;20026;-81
2021/07/21 03:57:13;;;;;;;16.25;11.40;;;;;;;;;;5011235;28;20034;-82
2021/07/21 03:59:38;;;;;;;14.40;10.98;;;;;;;;;;5027201;28;20065;-81
2021/07/21 04:02:06;;;;;;;13.88;11.93;;;;;;;;;;5011349;28;20041;-82
2021/07/21 04:04:31;;;;;;;14.02;11.50;;;;;;;;;;5027287;28;20042;-81
2021/07/21 04:06:57;;;;;;;15.52;12.15;;;;;;;;;;4999056;28;20492;-81
2021/07/21 04:09:23;;;;;;;15.15;12.35;;;;;;;;;;5025530;28;20042;-81
2021/07/21 04:11:50;;;;;;;13.35;11.38;;;;;;;;;;4991271;28;20038;-81
2021/07/21 04:14:16;;;;;;;14.00;11.80;;;;;;;;;;5023658;28;20505;-81
2021/07/21 04:16:42;;;;;;;15.77;12.32;;;;;;;;;;4990955;28;20046;-81
2021/07/21 04:19:09;;;;;;;15.18;12.18;;;;;;;;;;5002924;28;20025;-82
2021/07/21 04:21:39;;;;;;;15.50;10.60;;;;;;;;;;5047088;28;20036;-81
2021/07/21 04:24:05;;;;;;;15.90;11.57;;;;;;;;;;5006313;28;20022;-81
2021/07/21 04:26:32;;;;;;;14.38;11.77;;;;;;;;;;4978230;28;20091;-81
2021/07/21 04:28:58;;;;;;;17.05;11.93;;;;;;;;;;4994923;28;20033;-80
2021/07/21 04:31:26;;;;;;;16.13;12.13;;;;;;;;;;4994686;28;20080;-81
2021/07/21 04:33:56;;;;;;;14.32;12.05;;;;;;;;;;4994615;28;20034;-81
2021/07/21 04:36:22;;;;;;;15.85;11.75;;;;;;;;;;5014746;28;20041;-81
2021/07/21 04:38:48;;;;;;;14.75;12.43;;;;;;;;;;4997992;28;20041;-81
2021/07/21 04:41:14;;;;;;;18.10;12.13;;;;;;;;;;5001628;28;20030;-80
2021/07/21 04:43:40;;;;;;;14.43;11.85;;;;;;;;;;5023588;28;20401;-81
2021/07/21 04:46:05;;;;;;;16.02;12.40;;;;;;;;;;5007228;28;20046;-81
2021/07/21 04:48:31;;;;;;;14.75;10.82;;;;;;;;;;5023481;28;20038;-81
2021/07/21 04:50:56;;;;;;;15.35;12.40;;;;;;;;;;5023821;28;20038;-80
2021/07/21 04:53:22;;;;;;;13.77;12.02;;;;;;;;;;5023413;28;20038;-81
2021/07/21 04:55:47;;;;;;;15.45;11.60;;;;;;;;;;5023668;28;20116;-79
2021/07/21 04:58:14;;;;;;;15.63;12.18;;;;;;;;;;4958758;28;20039;-79
2021/07/21 05:00:39;;;;;;;12.63;11.02;;;;;;;;;;5023863;28;20127;-79
2021/07/21 05:03:06;;;;;;;14.73;12.07;;;;;;;;;;4974601;28;20049;-79
2021/07/21 05:05:41;;;;;;;12.52;10.82;;;;;;;;;;4994756;28;20049;-79
2021/07/21 05:08:06;;;;;;;14.43;10.98;;;;;;;;;;5011134;28;20046;-79
2021/07/21 05:10:33;;;;;;;14.43;11.07;;;;;;;;;;4978863;28;20038;-79
2021/07/21 05:12:59;;;;;;;14.27;11.38;;;;;;;;;;4978294;28;20416;-79
2021/07/21 05:15:24;;;;;;;13.43;11.30;;;;;;;;;;4962455;28;20054;-79
2021/07/21 05:17:50;;;;;;;14.75;10.90;;;;;;;;;;4993843;28;20404;-79
2021/07/21 05:20:15;;;;;;;12.95;11.07;;;;;;;;;;4964957;28;20041;-78
2021/07/21 05:22:47;;;;;;;15.88;10.60;;;;;;;;;;4997753;28;20424;-79
2021/07/21 05:25:17;;;;;;;15.32;11.93;;;;;;;;;;4998551;28;20041;-79
2021/07/21 05:27:44;;;;;;;13.05;10.45;;;;;;;;;;4994193;28;20416;-78
2021/07/21 05:30:10;;;;;;;12.88;10.40;;;;;;;;;;5022679;28;20393;-78
2021/07/21 05:32:35;;;;;;;13.75;10.88;;;;;;;;;;4997913;28;20443;-78
2021/07/21 05:35:01;;;;;;;14.77;11.35;;;;;;;;;;4997920;28;20049;-79
2021/07/21 05:37:27;;;;;;;13.18;10.25;;;;;;;;;;5026098;28;20030;-78
2021/07/21 05:39:53;;;;;;;13.75;11.20;;;;;;;;;;5000558;28;20041;-78
2021/07/21 05:42:18;;;;;;;12.95;9.80;;;;;;;;;;4992684;28;20133;-81
2021/07/21 05:44:44;;;;;;;12.20;10.90;;;;;;;;;;4992350;28;20045;-81
2021/07/21 05:47:09;;;;;;;14.60;11.35;;;;;;;;;;5017188;28;20042;-81
2021/07/21 05:49:35;;;;;;;13.30;10.55;;;;;;;;;;5017132;28;20040;-81
2021/07/21 05:52:01;;;;;;;12.98;10.32;;;;;;;;;;4974576;28;20030;-81
2021/07/21 05:54:27;;;;;;;13.57;11.15;;;;;;;;;;4980659;28;20042;-78
2021/07/21 05:56:53;;;;;;;16.42;10.98;;;;;;;;;;5008100;28;20037;-81
2021/07/21 05:59:18;;;;;;;14.73;10.30;;;;;;;;;;5043649;28;20045;-81
2021/07/21 06:01:44;;;;;;;16.50;11.52;;;;;;;;;;4995131;28;20500;-81
2021/07/21 06:04:10;;;;;;;13.02;9.55;;;;;;;;;;5012125;28;20064;-79
2021/07/21 06:06:36;;;;;;;13.15;10.02;;;;;;;;;;4997190;28;20508;-80
2021/07/21 06:09:03;;;;;;;11.93;9.98;;;;;;;;;;4980816;28;20050;-80
2021/07/21 06:11:28;;;;;;;13.23;11.40;;;;;;;;;;5027654;28;20053;-80
2021/07/21 06:13:57;;;;;;;13.63;9.98;;;;;;;;;;4980490;28;20435;-81
2021/07/21 06:16:24;;;;;;;12.70;10.10;;;;;;;;;;4980078;28;20132;-80
2021/07/21 06:18:49;;;;;;;15.95;11.50;;;;;;;;;;5004267;28;20041;-80
2021/07/21 06:21:14;;;;;;;18.00;11.65;;;;;;;;;;4998381;28;20041;-80
2021/07/21 06:23:40;;;;;;;14.77;11.27;;;;;;;;;;4996923;28;20038;-80
2021/07/21 06:26:05;;;;;;;16.60;12.60;;;;;;;;;;4996643;28;20092;-80
2021/07/21 06:28:31;;;;;;;17.23;12.98;;;;;;;;;;5012590;28;20045;-80
2021/07/21 06:30:56;;;;;;;16.40;11.90;;;;;;;;;;5012620;28;20385;-80
2021/07/21 06:33:22;;;;;;;13.75;11.75;;;;;;;;;;4976752;28;20524;-80
2021/07/21 06:35:47;;;;;;;16.48;11.73;;;;;;;;;;4990341;28;20038;-80
2021/07/21 06:38:13;;;;;;;16.83;11.48;;;;;;;;;;5021509;28;20061;-80
2021/07/21 06:40:39;;;;;;;17.80;11.57;;;;;;;;;;4976903;28;20041;-80
2021/07/21 06:43:05;;;;;;;19.25;11.88;;;;;;;;;;5004690;28;20168;-80
2021/07/21 06:45:30;;;;;;;16.98;11.13;;;;;;;;;;4996373;28;20058;-80
2021/07/21 06:47:56;;;;;;;15.63;10.77;;;;;;;;;;5010277;28;20519;-80
2021/07/21 06:50:23;;;;;;;16.17;10.60;;;;;;;;;;4974399;28;20531;-80
2021/07/21 06:52:48;;;;;;;14.32;10.73;;;;;;;;;;5015395;28;20411;-80
2021/07/21 06:55:13;;;;;;;13.07;10.90;;;;;;;;;;5013551;28;20037;-80
2021/07/21 06:57:39;;;;;;;15.25;11.02;;;;;;;;;;5015283;28;20084;-79
2021/07/21 07:00:05;;;;;;;16.48;11.93;;;;;;;;;;5015839;28;20037;-79
2021/07/21 07:02:31;;;;;;;16.52;11.48;;;;;;;;;;5015526;28;20107;-80
2021/07/21 07:04:56;;;;;;;14.85;10.98;;;;;;;;;;5018695;28;20496;-80
2021/07/21 07:07:21;;;;;;;16.63;11.05;;;;;;;;;;4986084;28;20073;-79
2021/07/21 07:09:47;;;;;;;13.55;11.20;;;;;;;;;;4989175;28;20415;-79
2021/07/21 07:12:12;;;;;;;16.15;11.65;;;;;;;;;;5014538;28;20029;-81
2021/07/21 07:14:38;;;;;;;15.68;11.52;;;;;;;;;;4982844;28;20121;-80
2021/07/21 07:17:03;;;;;;;16.05;11.00;;;;;;;;;;4989086;28;20095;-80
2021/07/21 07:19:29;;;;;;;17.10;11.63;;;;;;;;;;4982368;28;20515;-80
2021/07/21 07:21:54;;;;;;;17.17;11.68;;;;;;;;;;4978799;28;20408;-80
2021/07/21 07:24:20;;;;;;;17.02;11.48;;;;;;;;;;4980837;28;20077;-80
2021/07/21 07:26:46;;;;;;;16.83;12.57;;;;;;;;;;5009641;28;20056;-80
2021/07/21 07:29:11;;;;;;;19.30;11.43;;;;;;;;;;5003901;28;20065;-80
2021/07/21 07:31:37;;;;;;;16.88;11.27;;;;;;;;;;5013229;28;20117;-79
2021/07/21 07:34:02;;;;;;;16.30;11.85;;;;;;;;;;5031447;28;20033;-80
2021/07/21 07:36:28;;;;;;;17.00;12.25;;;;;;;;;;5010196;28;20069;-79
2021/07/21 07:38:54;;;;;;;16.77;13.02;;;;;;;;;;4992054;28;20042;-80
2021/07/21 07:41:22;;;;;;;16.50;11.20;;;;;;;;;;5010656;28;20034;-79
2021/07/21 07:43:49;;;;;;;22.42;13.15;;;;;;;;;;5011596;28;20034;-79
2021/07/21 07:46:14;;;;;;;17.58;12.25;;;;;;;;;;5027090;28;20160;-79
2021/07/21 07:48:40;;;;;;;17.40;12.55;;;;;;;;;;4998670;28;20385;-80
2021/07/21 07:51:05;;;;;;;17.05;11.35;;;;;;;;;;4998533;28;20037;-80
2021/07/21 07:53:31;;;;;;;15.68;12.05;;;;;;;;;;5018573;28;20053;-79
2021/07/21 07:55:57;;;;;;;16.92;12.18;;;;;;;;;;4994652;28;20042;-79
2021/07/21 07:58:23;;;;;;;17.20;12.98;;;;;;;;;;5010802;28;20056;-79
2021/07/21 08:00:48;;;;;;;13.90;10.45;;;;;;;;;;4991567;28;20481;-80
2021/07/21 08:03:14;;;;;;;17.55;12.73;;;;;;;;;;5003189;28;20455;-79
2021/07/21 08:05:39;;;;;;;15.82;11.00;;;;;;;;;;4978643;28;20479;-78
2021/07/21 08:08:05;;;;;;;14.80;11.25;;;;;;;;;;4993883;28;20046;-78
2021/07/21 08:10:31;;;;;;;16.40;10.63;;;;;;;;;;5000822;28;20044;-77
2021/07/21 08:12:56;;;;;;;13.27;9.48;;;;;;;;;;5030068;28;20048;-77
2021/07/21 08:15:22;;;;;;;12.38;9.30;;;;;;;;;;5016349;28;20052;-78
2021/07/21 08:17:48;;;;;;;13.48;9.05;;;;;;;;;;5026708;28;20034;-78
2021/07/21 08:20:13;;;;;;;11.90;8.63;;;;;;;;;;5026765;28;20037;-77
2021/07/21 08:22:39;;;;;;;13.80;8.73;;;;;;;;;;5010979;28;20041;-78
2021/07/21 08:25:25;;;;;;;11.70;8.32;;;;;;;;;;4994134;28;20034;-78
2021/07/21 08:27:52;;;;;;;13.75;8.43;;;;;;;;;;5027049;28;20049;-78
2021/07/21 08:30:18;;;;;;;12.13;7.70;;;;;;;;;;4991109;28;20046;-77
2021/07/21 08:32:48;;;;;;;11.75;7.45;;;;;;;;;;4991257;28;20034;-77
2021/07/21 08:35:14;;;;;;;9.02;6.88;;;;;;;;;;4991113;28;20445;-78
2021/07/21 08:37:39;;;;;;;10.15;6.50;;;;;;;;;;5002701;28;20435;-77
2021/07/21 08:40:06;;;;;;;10.98;7.07;;;;;;;;;;4994659;28;20036;-77
2021/07/21 08:42:32;;;;;;;9.38;7.55;;;;;;;;;;5026621;28;20052;-77
2021/07/21 08:44:57;;;;;;;8.52;6.53;;;;;;;;;;5026890;28;20050;-78
2021/07/21 08:47:23;;;;;;;9.43;5.82;;;;;;;;;;5010750;28;20061;-78
2021/07/21 08:49:48;;;;;;;8.63;6.53;;;;;;;;;;5027666;28;20073;-78
2021/07/21 08:52:15;;;;;;;8.15;6.30;;;;;;;;;;5026872;28;20026;-78
2021/07/21 08:54:41;;;;;;;8.65;6.32;;;;;;;;;;5026898;28;20037;-78
2021/07/21 08:57:07;;;;;;;8.07;5.72;;;;;;;;;;5026906;28;20042;-78
2021/07/21 08:59:32;;;;;;;7.38;5.70;;;;;;;;;;5010923;28;20045;-78
2021/07/21 09:01:58;;;;;;;8.73;6.40;;;;;;;;;;5010362;28;20084;-78
2021/07/21 09:04:23;;;;;;;8.70;6.10;;;;;;;;;;5010431;28;20038;-78
2021/07/21 09:06:49;;;;;;;7.25;5.40;;;;;;;;;;5026550;28;20060;-78
2021/07/21 09:09:14;;;;;;;7.97;6.50;;;;;;;;;;5026794;28;20040;-77
2021/07/21 09:11:40;;;;;;;9.48;5.57;;;;;;;;;;5026723;28;20042;-77
2021/07/21 09:14:07;;;;;;;8.05;6.05;;;;;;;;;;5010319;28;20045;-78
2021/07/21 09:16:33;;;;;;;9.15;6.25;;;;;;;;;;5043164;28;20037;-77
2021/07/21 09:18:58;;;;;;;9.00;5.70;;;;;;;;;;5026989;28;20104;-78
2021/07/21 09:21:24;;;;;;;5.97;4.80;;;;;;;;;;5026645;28;20412;-77
2021/07/21 09:23:52;;;;;;;7.63;5.30;;;;;;;;;;5026397;28;20060;-78
2021/07/21 09:26:19;;;;;;;7.30;5.70;;;;;;;;;;5010100;28;20057;-78
2021/07/21 09:28:45;;;;;;;7.72;6.28;;;;;;;;;;5010272;28;20487;-78
2021/07/21 09:31:12;;;;;;;7.40;6.15;;;;;;;;;;5026739;28;20077;-78
2021/07/21 09:33:37;;;;;;;8.35;5.90;;;;;;;;;;5027157;28;20049;-77
2021/07/21 09:36:03;;;;;;;6.80;5.05;;;;;;;;;;5027474;28;20412;-78
2021/07/21 09:38:30;;;;;;;7.30;6.15;;;;;;;;;;5046287;28;20068;-78
2021/07/21 09:40:57;;;;;;;7.97;6.07;;;;;;;;;;4987802;28;20038;-78
2021/07/21 09:43:24;;;;;;;8.45;5.47;;;;;;;;;;5009773;28;20042;-77
2021/07/21 09:45:50;;;;;;;7.95;5.45;;;;;;;;;;5010347;28;20035;-78
2021/07/21 09:48:18;;;;;;;7.80;5.30;;;;;;;;;;5026904;28;20041;-77
2021/07/21 09:50:45;;;;;;;8.20;5.40;;;;;;;;;;5010097;28;20117;-78
2021/07/21 09:53:12;;;;;;;6.88;5.28;;;;;;;;;;5028198;28;20514;-78
2021/07/21 09:55:39;;;;;;;7.28;5.65;;;;;;;;;;5013327;28;20068;-78
2021/07/21 09:58:08;;;;;;;7.20;5.80;;;;;;;;;;5013471;28;20511;-78
2021/07/21 10:00:39;;;;;;;7.00;5.55;;;;;;;;;;5013734;28;20046;-78
2021/07/21 10:03:22;;;;;;;6.10;4.95;;;;;;;;;;5030438;28;20117;-77
2021/07/21 10:06:10;;;;;;;9.45;6.53;;;;;;;;;;5029618;28;20500;-78
2021/07/21 10:08:47;;;;;;;7.00;5.30;;;;;;;;;;5014842;28;20034;-78
2021/07/21 10:11:23;;;;;;;8.00;5.35;;;;;;;;;;5030575;28;20492;-78
2021/07/21 10:13:50;;;;;;;7.72;5.60;;;;;;;;;;5013428;28;20496;-78
2021/07/21 10:16:36;;;;;;;9.02;5.68;;;;;;;;;;5029817;28;20373;-78
2021/07/21 10:19:13;;;;;;;7.57;5.47;;;;;;;;;;5013603;28;20822;-78
2021/07/21 10:21:40;;;;;;;6.85;5.55;;;;;;;;;;5012940;28;20065;-78
2021/07/21 10:24:06;;;;;;;8.55;6.43;;;;;;;;;;5012972;28;20030;-78
2021/07/21 10:26:32;;;;;;;7.35;5.30;;;;;;;;;;5013130;28;20048;-78
2021/07/21 10:28:58;;;;;;;9.57;6.18;;;;;;;;;;5013217;28;20034;-78
2021/07/21 10:31:24;;;;;;;6.53;5.13;;;;;;;;;;5012999;28;20044;-78
2021/07/21 10:33:50;;;;;;;6.05;5.13;;;;;;;;;;4996920;28;20026;-78
2021/07/21 10:36:15;;;;;;;6.68;5.15;;;;;;;;;;5014977;28;20029;-78
2021/07/21 10:38:41;;;;;;;7.28;5.95;;;;;;;;;;5032767;28;20512;-78
2021/07/21 10:41:06;;;;;;;8.05;5.13;;;;;;;;;;5037512;28;20038;-77
2021/07/21 10:43:32;;;;;;;7.45;6.07;;;;;;;;;;5029085;28;20042;-78
2021/07/21 10:45:57;;;;;;;8.45;5.57;;;;;;;;;;4996227;28;20081;-78
2021/07/21 10:48:47;;;;;;;7.13;6.32;;;;;;;;;;5029167;28;20033;-78
2021/07/21 10:54:29;;;;;;;7.18;5.45;;;;;;;;;;5016987;28;20128;-79
2021/07/21 10:59:42;;;;;;;6.95;6.00;;;;;;;;;;5026839;28;20038;-78
2021/07/21 11:02:08;;;;;;;7.43;5.93;;;;;;;;;;5029244;28;20049;-78
2021/07/21 11:04:44;;;;;;;8.45;5.60;;;;;;;;;;5011521;28;20030;-77
2021/07/21 11:07:11;;;;;;;8.32;5.28;;;;;;;;;;5028699;28;20030;-78
2021/07/21 11:09:39;;;;;;;7.40;5.43;;;;;;;;;;5029069;28;20188;-78
2021/07/21 11:12:04;;;;;;;6.18;5.07;;;;;;;;;;5028043;28;20034;-78
2021/07/21 11:14:34;;;;;;;8.85;5.90;;;;;;;;;;5012106;28;20033;-78
2021/07/21 11:17:05;;;;;;;7.20;5.13;;;;;;;;;;5011843;28;20492;-78
2021/07/21 11:19:50;;;;;;;7.53;5.82;;;;;;;;;;5028480;28;20065;-78
2021/07/21 11:22:18;;;;;;;6.32;5.15;;;;;;;;;;5011680;28;20045;-78
2021/07/21 11:25:06;;;;;;;7.45;5.03;;;;;;;;;;5028231;28;20535;-78
2021/07/21 11:27:38;;;;;;;7.32;5.85;;;;;;;;;;5028421;28;20125;-78
2021/07/21 11:30:04;;;;;;;;;;;;;;;;;;5009123;28;20037;-78
2021/07/21 11:32:30;;;;;;;8.88;5.60;;;;;;;;;;4992097;28;19909;-78
2021/07/21 11:34:56;;;;;;;6.95;5.32;;;;;;;;;;4991768;28;20579;-78
2021/07/21 11:37:29;;;;;;;7.03;5.35;;;;;;;;;;5031527;28;20054;-78
2021/07/21 11:39:56;;;;;;;7.70;5.20;;;;;;;;;;5046607;28;20041;-78
2021/07/21 11:42:26;;;;;;;7.93;5.30;;;;;;;;;;5027647;28;20064;-78
2021/07/21 11:45:04;;;;;;;7.55;5.95;;;;;;;;;;5027956;28;20132;-77
2021/07/21 11:47:34;;;;;;;9.20;6.03;;;;;;;;;;5041032;28;20030;-78
2021/07/21 11:50:00;;;;;;;8.80;5.65;;;;;;;;;;5028079;28;20040;-78
2021/07/21 11:52:26;;;;;;;6.95;5.50;;;;;;;;;;5011215;28;20034;-78
2021/07/21 11:54:52;;;;;;;6.78;5.63;;;;;;;;;;5011588;28;20412;-78
2021/07/21 11:57:23;;;;;;;7.28;5.55;;;;;;;;;;5011594;28;20037;-78
2021/07/21 11:59:52;;;;;;;6.38;5.10;;;;;;;;;;5010762;28;20033;-78
2021/07/21 12:02:17;;;;;;;7.50;5.53;;;;;;;;;;5026995;28;20037;-79
2021/07/21 12:04:44;;;;;;;8.30;6.60;;;;;;;;;;5028041;28;20469;-77
2021/07/21 12:07:15;;;;;;;7.25;5.82;;;;;;;;;;5010870;28;20042;-78
2021/07/21 12:09:42;;;;;;;7.22;5.22;;;;;;;;;;5027650;28;20041;-78
2021/07/21 12:12:08;;;;;;;7.00;5.80;;;;;;;;;;5010645;28;20049;-78
2021/07/21 12:14:34;;;;;;;5.97;4.97;;;;;;;;;;5027603;28;20046;-78
2021/07/21 12:17:13;;;;;;;6.07;5.43;;;;;;;;;;5025688;28;20167;-78
2021/07/21 12:19:43;;;;;;;6.70;5.63;;;;;;;;;;5025820;28;20511;-77
2021/07/21 12:22:12;;;;;;;6.75;5.50;;;;;;;;;;5009930;28;20041;-78
2021/07/21 12:24:42;;;;;;;7.10;5.63;;;;;;;;;;5027011;28;20065;-77
2021/07/21 12:27:08;;;;;;;7.75;6.07;;;;;;;;;;5010660;28;20045;-78
2021/07/21 12:29:34;;;;;;;8.23;5.90;;;;;;;;;;5011354;28;20049;-78
2021/07/21 12:32:07;;;;;;;8.20;6.30;;;;;;;;;;5010799;28;20026;-78
2021/07/21 12:34:33;;;;;;;7.80;6.13;;;;;;;;;;5011025;28;20600;-78
2021/07/21 12:36:59;;;;;;;8.68;6.03;;;;;;;;;;5019413;28;20091;-78
2021/07/21 12:39:29;;;;;;;8.98;6.30;;;;;;;;;;5047348;28;20400;-79
2021/07/21 12:41:56;;;;;;;7.13;6.35;;;;;;;;;;4996098;28;20026;-78
2021/07/21 12:44:27;;;;;;;7.78;5.82;;;;;;;;;;5009821;28;20397;-78
2021/07/21 12:47:15;;;;;;;9.18;6.32;;;;;;;;;;5010826;28;20046;-78
2021/07/21 12:49:41;;;;;;;8.55;6.25;;;;;;;;;;5027456;28;20455;-78
2021/07/21 12:52:19;;;;;;;7.80;5.60;;;;;;;;;;4994425;28;20034;-78
2021/07/21 12:54:54;;;;;;;8.38;6.38;;;;;;;;;;5027105;28;20041;-78
2021/07/21 12:57:43;;;;;;;6.68;5.40;;;;;;;;;;4995205;28;20534;-78
2021/07/21 13:00:20;;;;;;;8.05;5.60;;;;;;;;;;5026881;28;20065;-78
2021/07/21 13:03:04;;;;;;;10.25;6.18;;;;;;;;;;5010781;28;20037;-78
2021/07/21 13:05:41;;;;;;;7.45;5.75;;;;;;;;;;5010123;28;20054;-78
2021/07/21 13:08:19;;;;;;;9.75;5.72;;;;;;;;;;5010803;28;20520;-78
2021/07/21 13:10:45;;;;;;;8.68;5.32;;;;;;;;;;5010448;28;20038;-78
2021/07/21 13:13:25;;;;;;;7.32;6.43;;;;;;;;;;5010219;28;20034;-78
2021/07/21 13:16:04;;;;;;;8.00;6.35;;;;;;;;;;5022810;28;20043;-78
2021/07/21 13:18:33;;;;;;;7.32;4.85;;;;;;;;;;5023107;28;20235;-78
2021/07/21 13:20:58;;;;;;;8.82;5.68;;;;;;;;;;5023326;28;20421;-78
2021/07/21 13:23:27;;;;;;;6.50;5.25;;;;;;;;;;5006711;28;20042;-78
2021/07/21 13:26:07;;;;;;;7.55;5.78;;;;;;;;;;4990866;28;20062;-78
2021/07/21 13:28:33;;;;;;;8.38;6.30;;;;;;;;;;4993679;28;20042;-77
2021/07/21 13:31:17;;;;;;;7.35;5.85;;;;;;;;;;5009651;28;20501;-78
2021/07/21 13:33:43;;;;;;;7.57;5.63;;;;;;;;;;5010965;28;20045;-77
2021/07/21 13:36:11;;;;;;;6.63;5.45;;;;;;;;;;4997686;28;20045;-78
2021/07/21 13:38:36;;;;;;;7.03;5.55;;;;;;;;;;5001268;28;20124;-78
2021/07/21 13:41:12;;;;;;;9.02;6.07;;;;;;;;;;5006879;28;20456;-78
2021/07/21 13:43:37;;;;;;;8.40;5.72;;;;;;;;;;5030279;28;20113;-78
2021/07/21 13:46:23;;;;;;;7.50;5.97;;;;;;;;;;5014076;28;20514;-78
2021/07/21 13:49:03;;;;;;;6.60;5.70;;;;;;;;;;5014167;28;20551;-78
2021/07/21 13:51:45;;;;;;;8.13;5.80;;;;;;;;;;5013573;28;20044;-78
2021/07/21 13:54:18;;;;;;;8.15;5.57;;;;;;;;;;5013862;28;20041;-78
2021/07/21 13:56:45;;;;;;;8.10;6.72;;;;;;;;;;5030467;28;20034;-78
2021/07/21 13:59:11;;;;;;;7.45;5.20;;;;;;;;;;5029886;28;20061;-77
2021/07/21 14:01:37;;;;;;;6.97;5.50;;;;;;;;;;5013748;28;20045;-78
2021/07/21 14:04:03;;;;;;;7.30;6.22;;;;;;;;;;5013600;28;20030;-78
2021/07/21 14:06:29;;;;;;;7.55;5.50;;;;;;;;;;5013166;28;20204;-78
2021/07/21 14:08:55;;;;;;;6.80;5.30;;;;;;;;;;5030201;28;20105;-78
2021/07/21 14:11:22;;;;;;;10.05;6.38;;;;;;;;;;5013182;28;20034;-78
2021/07/21 14:13:47;;;;;;;10.25;5.72;;;;;;;;;;5029718;28;20073;-78
2021/07/21 14:16:12;;;;;;;7.63;5.55;;;;;;;;;;4996718;28;20398;-77
2021/07/21 14:18:38;;;;;;;8.52;6.45;;;;;;;;;;4997023;28;20056;-78
2021/07/21 14:21:03;;;;;;;8.52;6.18;;;;;;;;;;5029854;28;20068;-78
2021/07/21 14:23:29;;;;;;;7.32;5.93;;;;;;;;;;5029923;28;20091;-78
2021/07/21 14:25:55;;;;;;;7.75;6.70;;;;;;;;;;5029202;28;20042;-78
2021/07/21 14:28:20;;;;;;;7.53;6.03;;;;;;;;;;5029268;28;20038;-78
2021/07/21 14:30:46;;;;;;;6.75;5.57;;;;;;;;;;5012893;28;20412;-78
2021/07/21 14:33:11;;;;;;;7.22;6.00;;;;;;;;;;5013182;28;20033;-78
2021/07/21 14:35:37;;;;;;;8.35;6.20;;;;;;;;;;5029318;28;20056;-78
2021/07/21 14:38:03;;;;;;;7.90;6.10;;;;;;;;;;5029585;28;20114;-78
2021/07/21 14:40:29;;;;;;;8.02;6.32;;;;;;;;;;5026728;28;20038;-78
2021/07/21 14:42:54;;;;;;;6.93;6.10;;;;;;;;;;5012162;28;20034;-78